createdAt,value
2018-04-25T00:09:24.434Z,67.80
2018-04-25T00:14:28.740Z,67.50
2018-04-25T00:19:36.939Z,68.30
2018-04-25T00:24:40.549Z,67.90
2018-04-25T00:29:45.811Z,68.00
2018-04-25T00:34:53.988Z,68.40
2018-04-25T00:40:00.037Z,68.30
2018-04-25T00:45:07.102Z,69.50
2018-04-25T00:50:15.836Z,68.80
2018-04-25T00:55:19.781Z,68.60
2018-04-25T01:00:23.808Z,68.60
2018-04-25T01:05:28.759Z,68.60
2018-04-25T01:10:33.988Z,68.50
2018-04-25T01:15:39.759Z,69.50
2018-04-25T01:20:46.165Z,69.70
2018-04-25T01:25:50.180Z,70.00
2018-04-25T01:31:11.296Z,69.80
2018-04-25T01:41:33.841Z,69.70
2018-04-25T01:51:56.186Z,70.50
2018-04-25T01:57:11.674Z,69.70
2018-04-25T02:02:15.217Z,69.80
2018-04-25T02:07:19.391Z,69.60
2018-04-25T02:12:24.211Z,70.70
2018-04-25T02:17:29.584Z,69.50
2018-04-25T02:22:37.086Z,71.20
2018-04-25T02:27:41.746Z,71.20
2018-04-25T02:32:49.181Z,70.70
2018-04-25T02:37:54.139Z,70.90
2018-04-25T02:42:59.311Z,70.70
2018-04-25T02:48:05.727Z,70.40
2018-04-25T02:53:14.398Z,71.40
2018-04-25T02:58:18.136Z,71.00
2018-04-25T03:03:22.863Z,71.40
2018-04-25T03:08:33.490Z,71.90
2018-04-25T03:13:39.642Z,71.80
2018-04-25T03:18:44.370Z,71.90
2018-04-25T03:29:00.728Z,72.60
2018-04-25T03:34:05.282Z,72.00
2018-04-25T03:39:08.667Z,71.70
2018-04-25T03:44:11.618Z,72.70
2018-04-25T03:59:31.715Z,71.90
2018-04-25T04:04:36.740Z,72.30
2018-04-25T04:09:43.327Z,72.60
2018-04-25T04:19:48.362Z,72.70
2018-04-25T04:24:51.254Z,73.00
2018-04-25T04:29:54.303Z,72.90
2018-04-25T04:34:59.209Z,73.30
2018-04-25T04:40:03.758Z,72.00
2018-04-25T04:45:06.918Z,72.90
2018-04-25T04:50:09.635Z,73.30
2018-04-25T04:55:12.183Z,73.70
2018-04-25T05:00:15.813Z,74.00
2018-04-25T05:05:21.070Z,73.80
2018-04-25T05:10:30.237Z,75.20
2018-04-25T05:15:33.219Z,74.30
2018-04-25T05:20:37.928Z,74.80
2018-04-25T05:25:41.978Z,75.40
2018-04-25T05:30:48.246Z,75.50
2018-04-25T05:35:52.266Z,75.60
2018-04-25T05:40:55.308Z,75.70
2018-04-25T05:45:58.458Z,75.90
2018-04-25T05:51:01.196Z,75.30
2018-04-25T05:56:07.435Z,74.80
2018-04-25T06:01:11.351Z,74.20
2018-04-25T06:06:14.243Z,74.00
2018-04-25T06:11:17.259Z,73.40
2018-04-25T06:16:20.480Z,72.80
2018-04-25T06:21:24.261Z,71.80
2018-04-25T06:26:28.124Z,70.20
2018-04-25T06:31:32.603Z,70.10
2018-04-25T06:36:35.486Z,69.60
2018-04-25T06:41:38.500Z,68.80
2018-04-25T06:46:42.862Z,68.10
2018-04-25T06:51:45.665Z,67.30
2018-04-25T06:56:48.502Z,66.70
2018-04-25T07:01:51.696Z,66.70
2018-04-25T07:06:54.605Z,66.50
2018-04-25T07:11:57.910Z,66.70
2018-04-25T07:17:00.996Z,66.50
2018-04-25T07:22:05.615Z,65.80
2018-04-25T07:27:08.978Z,64.30
2018-04-25T07:32:12.546Z,64.20
2018-04-25T07:37:16.111Z,63.90
2018-04-25T07:42:18.828Z,63.50
2018-04-25T07:47:25.116Z,62.60
2018-04-25T07:52:28.045Z,62.60
2018-04-25T07:57:31.017Z,61.90
2018-04-25T08:02:34.538Z,61.40
2018-04-25T08:07:38.471Z,60.50
2018-04-25T08:12:54.361Z,59.70
2018-04-25T08:18:09.515Z,59.10
2018-04-25T08:23:12.261Z,58.70
2018-04-25T08:28:15.593Z,57.90
2018-04-25T08:33:20.301Z,57.20
2018-04-25T08:38:24.670Z,56.90
2018-04-25T08:43:28.237Z,56.50
2018-04-25T08:48:31.110Z,56.40
2018-04-25T08:53:34.062Z,56.40
2018-04-25T08:58:38.099Z,55.80
2018-04-25T09:03:41.077Z,56.00
2018-04-25T09:08:43.949Z,54.60
2018-04-25T09:13:46.769Z,54.40
2018-04-25T09:18:49.590Z,54.60
2018-04-25T09:23:52.811Z,52.70
2018-04-25T09:28:55.656Z,52.70
2018-04-25T09:33:59.376Z,52.40
2018-04-25T09:39:03.006Z,52.40
2018-04-25T09:44:07.377Z,52.30
2018-04-25T09:49:10.880Z,52.10
2018-04-25T09:54:13.995Z,52.00
2018-04-25T09:59:16.803Z,51.10
2018-04-25T10:04:20.440Z,51.40
2018-04-25T10:09:24.747Z,51.10
2018-04-25T10:14:27.635Z,50.60
2018-04-25T10:19:31.132Z,50.60
2018-04-25T10:24:34.622Z,51.10
2018-04-25T10:29:38.169Z,49.40
2018-04-25T10:34:40.868Z,50.20
2018-04-25T10:39:43.901Z,48.90
2018-04-25T10:44:46.718Z,48.50
2018-04-25T10:49:49.405Z,48.50
2018-04-25T10:54:52.086Z,48.30
2018-04-25T10:59:55.663Z,48.40
2018-04-25T11:04:58.626Z,48.10
2018-04-25T11:10:01.683Z,48.00
2018-04-25T11:15:04.317Z,48.20
2018-04-25T11:20:07.278Z,47.80
2018-04-25T11:25:10.590Z,47.60
2018-04-25T11:30:13.426Z,47.30
2018-04-25T11:35:17.128Z,46.80
2018-04-25T11:40:20.055Z,46.00
2018-04-25T11:45:24.138Z,46.20
2018-04-25T11:50:28.796Z,46.00
2018-04-25T11:55:31.582Z,46.30
2018-04-25T12:00:34.336Z,45.60
2018-04-25T12:05:40.419Z,46.90
2018-04-25T12:10:44.694Z,47.20
2018-04-25T12:15:47.626Z,47.40
2018-04-25T12:20:50.756Z,47.90
2018-04-25T12:25:53.469Z,48.40
2018-04-25T12:30:57.299Z,49.10
2018-04-25T12:36:00.421Z,48.60
2018-04-25T12:41:03.104Z,48.00
2018-04-25T12:46:06.971Z,47.30
2018-04-25T12:51:10.965Z,47.20
2018-04-25T12:56:14.336Z,47.20
2018-04-25T13:01:17.721Z,46.70
2018-04-25T13:06:20.660Z,44.00
2018-04-25T13:11:23.630Z,43.20
2018-04-25T13:16:26.756Z,43.60
2018-04-25T13:21:29.789Z,43.30
2018-04-25T13:26:33.812Z,43.70
2018-04-25T13:31:36.974Z,44.50
2018-04-25T13:36:39.948Z,44.90
2018-04-25T13:41:43.748Z,44.40
2018-04-25T13:46:47.423Z,45.20
2018-04-25T13:51:50.173Z,44.70
2018-04-25T13:56:53.746Z,44.10
2018-04-25T14:01:56.273Z,43.80
2018-04-25T14:06:58.904Z,43.20
2018-04-25T14:12:01.420Z,43.50
2018-04-25T14:17:04.496Z,41.70
2018-04-25T14:22:08.229Z,42.30
2018-04-25T14:27:11.116Z,42.30
2018-04-25T14:32:14.832Z,43.10
2018-04-25T14:37:18.572Z,43.30
2018-04-25T14:42:22.215Z,42.80
2018-04-25T14:47:25.754Z,42.30
2018-04-25T14:52:28.549Z,41.30
2018-04-25T14:57:31.898Z,42.30
2018-04-25T15:02:35.535Z,43.60
2018-04-25T15:07:38.590Z,44.20
2018-04-25T15:12:41.272Z,44.20
2018-04-25T15:17:44.912Z,44.60
2018-04-25T15:22:48.315Z,44.40
2018-04-25T15:27:51.006Z,44.50
2018-04-25T15:32:54.021Z,44.80
2018-04-25T15:37:57.579Z,44.90
2018-04-25T15:43:00.672Z,45.00
2018-04-25T15:48:03.996Z,45.00
2018-04-25T15:53:06.788Z,44.90
2018-04-25T15:58:10.257Z,45.20
2018-04-25T16:03:13.118Z,45.50
2018-04-25T16:08:16.201Z,45.10
2018-04-25T16:13:22.018Z,45.20
2018-04-25T16:18:24.718Z,44.10
2018-04-25T16:23:27.504Z,44.30
2018-04-25T16:28:31.028Z,44.00
2018-04-25T16:33:33.716Z,44.80
2018-04-25T16:38:38.642Z,44.10
2018-04-25T16:43:41.289Z,44.00
2018-04-25T16:48:44.501Z,44.60
2018-04-25T16:53:50.542Z,44.50
2018-04-25T16:58:53.464Z,44.70
2018-04-25T17:03:56.725Z,45.00
2018-04-25T17:08:59.552Z,44.80
2018-04-25T17:14:02.382Z,45.00
2018-04-25T17:19:05.820Z,45.60
2018-04-25T17:24:09.390Z,45.60
2018-04-25T17:29:13.946Z,45.00
2018-04-25T17:34:16.891Z,45.90
2018-04-25T17:39:20.254Z,45.40
2018-04-25T17:44:23.119Z,45.70
2018-04-25T17:49:26.058Z,45.10
2018-04-25T17:54:29.326Z,45.00
2018-04-25T17:59:33.822Z,45.40
2018-04-25T18:04:38.355Z,45.70
2018-04-25T18:09:42.791Z,45.90
2018-04-25T18:14:45.931Z,45.90
2018-04-25T18:19:49.539Z,46.00
2018-04-25T18:24:52.783Z,46.50
2018-04-25T18:29:55.620Z,46.10
2018-04-25T18:34:58.730Z,46.40
2018-04-25T18:40:02.059Z,46.40
2018-04-25T18:45:05.228Z,46.60
2018-04-25T18:50:08.751Z,46.90
2018-04-25T18:55:11.563Z,47.10
2018-04-25T19:00:16.265Z,47.30
2018-04-25T19:05:20.584Z,47.60
2018-04-25T19:10:25.891Z,47.70
2018-04-25T19:15:29.680Z,48.00
2018-04-25T19:20:34.494Z,48.20
2018-04-25T19:30:45.996Z,48.30
2018-04-25T19:35:49.730Z,48.30
2018-04-25T19:40:53.693Z,48.40
2018-04-25T19:45:58.669Z,48.70
2018-04-25T19:51:01.269Z,48.70
2018-04-25T19:56:08.035Z,49.00
2018-04-25T20:01:11.916Z,49.40
2018-04-25T20:06:16.605Z,49.80
2018-04-25T20:11:20.121Z,50.00
2018-04-25T20:16:24.167Z,50.20
2018-04-25T20:21:28.515Z,50.50
2018-04-25T20:26:31.243Z,50.60
2018-04-25T20:31:36.185Z,51.00
2018-04-25T20:36:40.948Z,51.00
2018-04-25T20:46:51.935Z,51.60
2018-04-25T20:51:56.142Z,52.10
2018-04-25T20:57:00.655Z,52.20
2018-04-25T21:02:07.971Z,52.30
2018-04-25T21:07:13.178Z,52.60
2018-04-25T21:12:19.600Z,52.80
2018-04-25T21:17:24.716Z,53.10
2018-04-25T21:22:28.019Z,53.70
2018-04-25T21:27:31.681Z,54.40
2018-04-25T21:32:35.644Z,54.10
2018-04-25T21:37:38.499Z,54.20
2018-04-25T21:42:41.979Z,54.50
2018-04-25T21:47:46.412Z,54.60
2018-04-25T21:52:51.056Z,54.80
2018-04-25T21:57:54.966Z,54.80
2018-04-25T22:02:58.549Z,55.00
2018-04-25T22:08:02.990Z,55.30
2018-04-25T22:13:07.114Z,55.50
2018-04-25T22:18:11.322Z,55.20
2018-04-25T22:23:17.084Z,55.50
2018-04-25T22:28:25.052Z,55.20
2018-04-25T22:33:28.204Z,55.60
2018-04-25T22:38:32.541Z,55.50
2018-04-25T22:43:35.882Z,55.80
2018-04-25T22:48:41.203Z,55.80
2018-04-25T22:53:45.168Z,55.90
2018-04-25T22:58:49.942Z,56.00
2018-04-25T23:03:53.427Z,56.40
2018-04-25T23:08:56.473Z,56.40
2018-04-25T23:14:00.811Z,56.90
2018-04-25T23:19:05.289Z,56.50
2018-04-25T23:24:08.358Z,56.80
2018-04-25T23:29:11.551Z,56.80
2018-04-25T23:34:16.846Z,56.90
2018-04-25T23:39:20.941Z,56.90
2018-04-25T23:44:24.288Z,57.50
2018-04-25T23:54:37.766Z,57.20
2018-04-25T23:59:41.070Z,57.80
